Time;durP1;ratioP1;P1;durP2;ratioP2;P2;SDS_P1;SDS_P2;PMS_P1;PMS_P2;Temp;Humidity;BMP_temperature;BMP_pressure;BME280_temperature;BME280_humidity;BME280_pressure;Samples;Min_cycle;Max_cycle;Signal;HPM_P1;HPM_P2
2024/02/23 00:01:52;;;;;;;10.40;6.50;;;;;;;7.84;86.07;97635.60;217858;1259;139953;-75
2024/02/23 00:06:56;;;;;;;8.10;7.10;;;;;;;7.86;86.22;97631.62;217780;1259;140569;-76
2024/02/23 00:12:00;;;;;;;9.80;5.80;;;;;;;7.87;86.22;97629.39;217796;1256;139200;-74
2024/02/23 00:17:04;;;;;;;8.80;5.70;;;;;;;7.88;86.25;97627.42;217937;1256;139534;-74
2024/02/23 00:22:08;;;;;;;6.80;5.90;;;;;;;7.89;86.19;97625.37;217995;1255;139973;-75
2024/02/23 00:27:12;;;;;;;8.90;6.40;;;;;;;7.90;86.07;97617.61;217910;1254;140158;-73
2024/02/23 00:32:17;;;;;;;7.30;5.80;;;;;;;7.91;86.07;97614.27;218178;1256;139286;-77
2024/02/23 00:37:21;;;;;;;9.00;5.30;;;;;;;7.92;86.12;97613.16;217825;1255;140621;-77
2024/02/23 00:42:25;;;;;;;7.40;4.80;;;;;;;7.93;86.43;97605.20;217897;1256;139979;-77
2024/02/23 00:47:29;;;;;;;7.60;4.80;;;;;;;7.94;86.40;97608.91;217831;1259;138548;-76
2024/02/23 00:52:32;;;;;;;6.10;4.40;;;;;;;7.96;86.18;97602.72;218016;1259;140780;-77
2024/02/23 00:57:38;;;;;;;10.90;7.70;;;;;;;7.97;86.25;97599.85;217732;1260;139459;-77
2024/02/23 01:02:42;;;;;;;6.60;4.90;;;;;;;7.99;86.71;97602.02;218876;1255;139574;-75
2024/02/23 01:07:46;;;;;;;7.00;4.40;;;;;;;8.00;86.79;97593.11;218166;1259;140432;-74
2024/02/23 01:12:50;;;;;;;10.50;5.40;;;;;;;8.01;86.51;97589.29;217903;1257;139738;-76
2024/02/23 01:17:56;;;;;;;7.20;4.90;;;;;;;8.01;86.72;97580.48;217949;1255;151504;-77
2024/02/23 01:23:00;;;;;;;9.10;4.70;;;;;;;8.01;86.87;97584.72;218078;1258;140468;-77
2024/02/23 01:28:04;;;;;;;5.00;4.40;;;;;;;8.02;86.90;97584.56;217992;1257;139636;-74
2024/02/23 01:33:09;;;;;;;5.60;5.00;;;;;;;8.04;87.09;97582.12;217865;1254;139042;-74
2024/02/23 01:38:18;;;;;;;6.20;4.70;;;;;;;8.06;87.13;97586.88;217894;1256;139746;-76
2024/02/23 01:43:23;;;;;;;6.50;5.00;;;;;;;8.07;87.04;97590.96;218044;1255;139530;-74
2024/02/23 01:48:27;;;;;;;5.60;4.30;;;;;;;8.07;87.34;97585.19;217923;1254;139790;-73
2024/02/23 01:53:31;;;;;;;4.40;3.80;;;;;;;8.08;87.37;97598.61;217878;1256;139253;-75
2024/02/23 01:58:37;;;;;;;5.30;4.00;;;;;;;8.08;87.54;97602.43;218162;1258;140473;-75
2024/02/23 02:03:43;;;;;;;6.00;4.10;;;;;;;8.06;87.81;97593.99;218113;1257;139675;-72
2024/02/23 02:08:46;;;;;;;5.30;4.80;;;;;;;8.01;88.11;97595.02;218138;1256;140176;-77
2024/02/23 02:13:51;;;;;;;6.10;4.90;;;;;;;7.95;88.77;97600.83;217928;1256;139902;-76
2024/02/23 02:18:55;;;;;;;3.40;3.10;;;;;;;7.90;89.13;97609.77;217809;1256;138689;-74
2024/02/23 02:24:00;;;;;;;9.30;5.90;;;;;;;7.87;89.15;97609.33;217744;1260;140000;-74
2024/02/23 02:29:04;;;;;;;5.60;3.90;;;;;;;7.81;89.49;97604.84;217718;1256;139370;-76
2024/02/23 02:34:12;;;;;;;5.60;4.10;;;;;;;7.76;89.88;97606.54;217800;1256;139292;-73
2024/02/23 02:39:17;;;;;;;6.00;3.60;;;;;;;7.74;89.84;97610.58;217639;1256;139178;-75
2024/02/23 02:44:21;;;;;;;5.30;4.60;;;;;;;7.70;90.33;97611.64;218231;1255;140002;-74
2024/02/23 02:49:32;;;;;;;7.90;5.10;;;;;;;7.67;90.46;97614.61;217766;1256;140588;-75
2024/02/23 02:54:39;;;;;;;6.10;4.40;;;;;;;7.64;90.96;97618.34;217773;1259;139551;-74
2024/02/23 02:59:46;;;;;;;3.50;3.20;;;;;;;7.64;91.31;97616.21;217792;1254;141125;-74
2024/02/23 03:04:55;;;;;;;5.50;4.20;;;;;;;7.65;91.59;97616.48;218087;1256;140019;-75
2024/02/23 03:10:26;;;;;;;5.70;5.20;;;;;;;7.65;91.22;97615.25;217716;1254;140217;-74
2024/02/23 03:15:36;;;;;;;6.10;5.50;;;;;;;7.66;91.49;97616.79;219163;1256;138922;-75
2024/02/23 03:20:46;;;;;;;4.50;3.80;;;;;;;7.66;91.69;97619.01;218801;1256;139193;-75
2024/02/23 03:25:50;;;;;;;4.60;3.80;;;;;;;7.65;92.28;97628.19;217737;1258;141507;-75
2024/02/23 03:30:54;;;;;;;5.40;4.90;;;;;;;7.63;92.04;97630.36;218274;1255;140551;-76
2024/02/23 03:35:59;;;;;;;7.60;5.00;;;;;;;7.59;92.45;97629.48;218492;1254;141063;-75
2024/02/23 03:41:04;;;;;;;5.40;4.50;;;;;;;7.56;92.89;97637.39;217883;1259;139448;-75
2024/02/23 03:46:09;;;;;;;6.40;3.90;;;;;;;7.53;92.72;97641.89;217761;1256;139469;-75
2024/02/23 03:51:13;;;;;;;5.80;5.20;;;;;;;7.51;93.35;97644.06;217476;1259;139283;-75
2024/02/23 03:56:16;;;;;;;7.80;6.80;;;;;;;7.50;93.80;97643.85;217618;1254;139415;-75
2024/02/23 04:01:21;;;;;;;7.80;5.90;;;;;;;7.48;93.97;97641.89;218129;1255;139245;-75
2024/02/23 04:06:25;;;;;;;4.70;4.10;;;;;;;7.48;94.16;97651.48;217424;1256;140377;-75
2024/02/23 04:11:30;;;;;;;4.40;4.00;;;;;;;7.47;94.13;97655.20;217614;1256;140043;-75
2024/02/23 04:16:34;;;;;;;5.60;3.90;;;;;;;7.47;94.14;97662.30;218205;1254;139339;-75
2024/02/23 04:21:38;;;;;;;5.70;4.20;;;;;;;7.46;94.66;97666.55;217256;1259;139874;-75
2024/02/23 04:26:42;;;;;;;4.70;4.20;;;;;;;7.47;94.54;97665.38;217576;1259;139415;-76
2024/02/23 04:31:46;;;;;;;4.70;4.20;;;;;;;7.48;94.69;97670.41;217645;1255;140310;-75
2024/02/23 04:36:57;;;;;;;6.70;4.80;;;;;;;7.48;94.91;97678.84;217433;1259;140861;-74
2024/02/23 04:42:02;;;;;;;9.00;4.80;;;;;;;7.48;95.42;97683.66;217652;1256;140269;-75
2024/02/23 04:47:06;;;;;;;6.20;5.30;;;;;;;7.47;95.01;97692.95;217588;1256;140041;-75
2024/02/23 04:52:11;;;;;;;4.00;3.50;;;;;;;7.46;94.98;97690.13;217634;1257;139231;-76
2024/02/23 04:57:15;;;;;;;4.10;3.70;;;;;;;7.45;95.51;97693.47;217560;1260;140199;-75
2024/02/23 05:02:19;;;;;;;5.10;4.00;;;;;;;7.44;95.16;97696.13;219748;1255;140196;-76
2024/02/23 05:07:28;;;;;;;5.90;4.80;;;;;;;7.44;95.25;97701.58;220238;1256;141757;-75
2024/02/23 05:12:32;;;;;;;8.40;5.00;;;;;;;7.45;95.31;97718.02;219078;1256;139908;-76
2024/02/23 05:17:37;;;;;;;3.30;3.00;;;;;;;7.47;95.03;97724.75;217559;1256;139907;-76
2024/02/23 05:22:40;;;;;;;7.10;4.10;;;;;;;7.47;95.35;97728.20;217745;1257;140438;-75
2024/02/23 05:27:44;;;;;;;4.90;4.00;;;;;;;7.46;95.37;97739.23;217711;1256;139754;-76
2024/02/23 05:32:48;;;;;;;4.60;4.10;;;;;;;7.47;95.26;97745.48;217567;1257;139196;-75
2024/02/23 05:37:58;;;;;;;5.00;4.20;;;;;;;7.47;95.47;97754.55;217325;1260;140182;-76
2024/02/23 05:43:02;;;;;;;5.50;4.20;;;;;;;7.46;95.48;97765.36;218433;1258;140279;-76
2024/02/23 05:48:07;;;;;;;6.10;4.70;;;;;;;7.47;95.65;97777.67;217404;1256;139277;-75
2024/02/23 05:53:11;;;;;;;3.90;3.60;;;;;;;7.49;95.82;97787.06;217616;1260;140513;-76
2024/02/23 05:58:16;;;;;;;3.30;2.90;;;;;;;7.49;95.63;97792.94;217471;1256;139509;-76
2024/02/23 06:03:21;;;;;;;6.60;5.00;;;;;;;7.49;95.43;97796.91;217655;1259;139619;-75
2024/02/23 06:08:25;;;;;;;7.30;4.20;;;;;;;7.47;95.62;97804.66;217499;1256;139813;-76
2024/02/23 06:13:32;;;;;;;7.50;4.00;;;;;;;7.47;95.92;97809.05;217266;1258;141079;-77
2024/02/23 06:18:45;;;;;;;3.70;3.50;;;;;;;7.48;95.91;97816.85;217274;1256;140809;-76
2024/02/23 06:23:49;;;;;;;3.50;3.10;;;;;;;7.50;96.10;97826.77;217339;1261;140155;-76
2024/02/23 06:28:54;;;;;;;5.90;3.40;;;;;;;7.52;96.37;97832.19;217587;1256;139540;-78
2024/02/23 06:33:58;;;;;;;5.60;4.00;;;;;;;7.54;96.19;97836.27;217516;1256;140031;-76
2024/02/23 06:39:02;;;;;;;4.20;3.00;;;;;;;7.54;96.15;97847.37;217673;1256;141315;-76
2024/02/23 06:44:07;;;;;;;4.80;3.70;;;;;;;7.55;96.56;97853.10;217563;1259;139525;-80
2024/02/23 06:49:12;;;;;;;6.40;4.80;;;;;;;7.56;96.45;97863.02;217248;1257;140299;-78
2024/02/23 06:54:17;;;;;;;4.10;3.20;;;;;;;7.57;96.34;97873.25;217399;1256;138716;-78
2024/02/23 06:59:24;;;;;;;3.60;3.30;;;;;;;7.59;96.46;97883.23;217412;1259;140838;-78
2024/02/23 07:04:29;;;;;;;3.90;3.60;;;;;;;7.62;96.77;97887.80;217824;1259;140566;-77
2024/02/23 07:09:33;;;;;;;4.90;3.90;;;;;;;7.64;96.58;97895.17;219257;1259;140831;-79
2024/02/23 07:14:37;;;;;;;9.10;4.00;;;;;;;7.68;96.75;97904.24;218427;1259;139782;-78
2024/02/23 07:19:41;;;;;;;5.30;3.10;;;;;;;7.75;96.90;97911.86;217551;1256;141200;-78
2024/02/23 07:24:45;;;;;;;4.50;3.00;;;;;;;7.86;96.94;97926.02;218369;1257;138873;-78
2024/02/23 07:29:49;;;;;;;4.30;3.30;;;;;;;7.92;96.73;97924.71;217792;1260;140093;-78
2024/02/23 07:34:53;;;;;;;6.80;4.00;;;;;;;7.98;96.65;97936.31;216997;1259;675822;-77
2024/02/23 07:39:58;;;;;;;4.30;3.50;;;;;;;8.02;96.57;97944.57;218329;1256;139742;-77
2024/02/23 07:45:04;;;;;;;5.10;3.20;;;;;;;8.06;96.39;97944.36;217665;1258;140507;-77
2024/02/23 07:50:08;;;;;;;3.00;2.70;;;;;;;8.08;96.54;97953.29;217528;1259;139316;-76
2024/02/23 07:55:13;;;;;;;3.50;3.20;;;;;;;8.12;96.44;97970.38;217525;1260;139974;-76
2024/02/23 08:00:20;;;;;;;4.00;3.70;;;;;;;8.16;96.52;97977.94;217565;1257;139571;-78
2024/02/23 08:05:26;;;;;;;3.10;2.50;;;;;;;8.20;96.40;97979.06;217614;1256;139571;-78
2024/02/23 08:10:36;;;;;;;4.60;3.90;;;;;;;8.19;96.30;97971.95;217660;1258;141235;-78
2024/02/23 08:15:40;;;;;;;4.00;3.70;;;;;;;8.19;96.13;97977.41;218627;1256;139855;-77
2024/02/23 08:20:43;;;;;;;4.50;3.80;;;;;;;8.22;96.23;97985.29;217564;1258;140393;-78
2024/02/23 08:25:47;;;;;;;4.40;3.50;;;;;;;8.29;96.41;97990.27;217608;1257;140654;-77
2024/02/23 08:30:52;;;;;;;5.50;3.20;;;;;;;8.32;96.07;97996.34;218684;1256;140197;-77
2024/02/23 08:35:55;;;;;;;5.60;4.10;;;;;;;8.33;96.20;98000.77;217525;1259;140600;-78
2024/02/23 08:40:59;;;;;;;4.30;3.90;;;;;;;8.34;95.96;98004.66;217686;1259;139852;-76
2024/02/23 08:46:03;;;;;;;5.20;3.60;;;;;;;8.38;96.16;98014.23;217564;1254;140154;-79
2024/02/23 08:51:13;;;;;;;5.10;3.80;;;;;;;8.43;96.29;98022.47;217617;1256;246043;-78
2024/02/23 08:56:17;;;;;;;5.30;4.80;;;;;;;8.43;96.02;98031.61;219332;1254;141176;-76
2024/02/23 09:01:21;;;;;;;4.10;3.70;;;;;;;8.46;96.01;98036.08;218463;1256;140500;-77
2024/02/23 09:06:25;;;;;;;4.70;4.30;;;;;;;8.51;96.17;98034.98;217515;1256;139474;-79
2024/02/23 09:11:29;;;;;;;6.00;3.60;;;;;;;8.56;95.94;98036.93;217417;1256;209974;-81
2024/02/23 09:16:34;;;;;;;3.70;3.40;;;;;;;8.58;96.05;98039.91;217723;1255;140464;-76
2024/02/23 09:21:38;;;;;;;4.50;4.00;;;;;;;8.64;96.03;98042.47;217459;1257;139297;-77
2024/02/23 09:26:46;;;;;;;4.70;3.40;;;;;;;8.70;96.00;98047.05;218423;1256;140372;-76
2024/02/23 09:31:50;;;;;;;3.70;3.40;;;;;;;8.74;95.82;98056.20;217616;1259;139784;-76
2024/02/23 09:36:54;;;;;;;4.40;4.00;;;;;;;8.81;95.62;98070.20;217866;1256;139754;-75
2024/02/23 09:41:58;;;;;;;6.80;4.90;;;;;;;8.87;95.62;98076.02;217566;1256;143659;-75
2024/02/23 09:47:07;;;;;;;4.40;4.00;;;;;;;8.95;95.44;98086.94;217792;1256;139508;-76
2024/02/23 09:52:12;;;;;;;4.80;3.80;;;;;;;9.02;95.41;98094.82;217881;1256;139590;-76
2024/02/23 09:57:20;;;;;;;4.10;3.60;;;;;;;9.15;95.46;98105.67;217817;1256;139203;-78
2024/02/23 10:02:24;;;;;;;3.80;3.30;;;;;;;9.29;95.28;98103.07;217944;1256;140024;-78
2024/02/23 10:07:28;;;;;;;4.50;4.10;;;;;;;9.43;95.22;98105.58;217460;1261;140632;-77
2024/02/23 10:12:33;;;;;;;7.40;4.60;;;;;;;9.58;94.91;98115.77;217644;1259;140663;-77
2024/02/23 10:17:37;;;;;;;8.00;3.50;;;;;;;9.73;94.93;98117.58;217686;1259;140799;-78
2024/02/23 10:22:41;;;;;;;5.80;3.20;;;;;;;9.85;94.64;98121.64;217870;1256;139672;-78
2024/02/23 10:27:46;;;;;;;5.00;3.90;;;;;;;9.92;94.19;98123.23;217628;1257;139625;-78
2024/02/23 10:32:55;;;;;;;4.20;3.80;;;;;;;9.98;94.13;98133.19;217746;1256;140098;-78
2024/02/23 10:38:01;;;;;;;5.10;3.60;;;;;;;10.05;93.87;98139.66;218231;1259;140160;-76
2024/02/23 10:43:08;;;;;;;4.20;3.50;;;;;;;10.06;93.29;98147.77;218352;1256;140591;-80
2024/02/23 10:48:15;;;;;;;5.80;3.90;;;;;;;10.12;93.35;98158.59;217784;1259;140785;-80
2024/02/23 10:53:19;;;;;;;3.40;3.00;;;;;;;10.22;93.16;98171.64;217622;1260;140063;-80
2024/02/23 10:58:23;;;;;;;4.40;3.90;;;;;;;10.26;92.82;98182.45;217911;1259;140261;-81
2024/02/23 11:03:32;;;;;;;8.30;4.20;;;;;;;10.29;92.46;98183.67;217715;1262;139764;-81
2024/02/23 11:08:39;;;;;;;7.00;4.00;;;;;;;10.28;92.18;98190.06;217484;1260;141501;-77
2024/02/23 11:13:45;;;;;;;4.00;3.50;;;;;;;10.30;92.27;98202.05;218272;1260;140324;-78
2024/02/23 11:19:01;;;;;;;7.10;4.20;;;;;;;10.37;92.10;98203.74;218340;1260;139968;-79
2024/02/23 11:24:06;;;;;;;4.50;4.00;;;;;;;10.45;91.96;98206.52;217766;1259;139612;-79
2024/02/23 11:29:12;;;;;;;3.80;3.50;;;;;;;10.52;91.85;98216.20;217826;1259;140371;-78
2024/02/23 11:34:27;;;;;;;5.70;5.10;;;;;;;10.60;91.82;98217.73;217828;1260;139907;-78
2024/02/23 11:39:31;;;;;;;10.00;6.30;;;;;;;10.66;91.13;98227.05;217805;1261;139756;-78
2024/02/23 11:44:35;;;;;;;6.10;4.10;;;;;;;10.71;91.04;98228.24;217830;1257;232198;-79
2024/02/23 11:49:40;;;;;;;4.40;3.70;;;;;;;10.78;90.71;98227.84;217810;1258;139786;-78
2024/02/23 11:54:45;;;;;;;3.80;3.10;;;;;;;10.83;90.53;98225.16;217957;1260;141110;-78
2024/02/23 11:59:51;;;;;;;5.50;3.80;;;;;;;10.90;90.36;98231.22;217651;1258;140431;-79
2024/02/23 12:04:56;;;;;;;4.50;3.90;;;;;;;10.95;89.86;98230.08;217783;1257;141860;-79
2024/02/23 12:10:00;;;;;;;4.70;3.50;;;;;;;11.04;90.17;98232.10;217770;1260;139806;-80
2024/02/23 12:15:06;;;;;;;7.70;3.90;;;;;;;11.13;89.94;98237.39;217674;1254;141982;-79
2024/02/23 12:20:10;;;;;;;6.00;3.70;;;;;;;11.26;89.95;98235.58;217730;1260;140450;-78
2024/02/23 12:25:18;;;;;;;10.30;4.00;;;;;;;11.42;89.84;98247.27;217859;1260;140233;-80
2024/02/23 12:30:21;;;;;;;5.10;3.80;;;;;;;11.54;89.64;98247.67;217837;1260;140001;-79
2024/02/23 12:35:27;;;;;;;4.80;4.40;;;;;;;11.66;89.23;98254.58;217852;1256;140939;-76
2024/02/23 12:40:31;;;;;;;5.40;4.60;;;;;;;11.77;88.95;98257.20;218105;1254;140869;-77
2024/02/23 12:45:35;;;;;;;3.90;3.20;;;;;;;11.82;88.13;98257.55;217761;1257;141410;-75
2024/02/23 12:50:38;;;;;;;5.70;4.30;;;;;;;11.76;87.55;98257.57;217274;1257;140921;-77
2024/02/23 12:55:43;;;;;;;3.60;3.20;;;;;;;11.71;87.60;98266.45;217460;1254;140559;-76
2024/02/23 13:00:48;;;;;;;6.00;4.80;;;;;;;11.68;86.99;98274.58;217529;1258;141404;-76
2024/02/23 13:05:56;;;;;;;5.50;3.80;;;;;;;11.71;87.22;98279.80;217536;1259;140114;-77
2024/02/23 13:11:01;;;;;;;6.40;4.10;;;;;;;11.76;87.14;98281.22;217523;1257;140017;-77
2024/02/23 13:16:06;;;;;;;8.70;4.50;;;;;;;11.77;87.10;98280.00;217595;1259;140895;-77
2024/02/23 13:21:10;;;;;;;5.10;4.60;;;;;;;11.87;86.97;98290.57;217398;1257;141491;-76
2024/02/23 13:26:14;;;;;;;5.10;3.50;;;;;;;11.93;86.48;98299.22;217141;1258;151979;-79
2024/02/23 13:31:18;;;;;;;6.60;5.50;;;;;;;11.91;86.23;98311.84;217121;1256;140815;-77
2024/02/23 13:36:23;;;;;;;7.00;4.60;;;;;;;11.80;85.91;98320.35;217334;1257;142555;-76
2024/02/23 13:41:28;;;;;;;4.90;4.10;;;;;;;11.74;86.20;98327.98;217247;1257;140635;-78
2024/02/23 13:46:36;;;;;;;5.90;3.30;;;;;;;11.67;85.63;98319.91;217543;1257;140013;-78
2024/02/23 13:51:41;;;;;;;7.60;4.00;;;;;;;11.54;85.05;98317.65;217592;1260;140156;-77
2024/02/23 13:56:45;;;;;;;7.00;4.40;;;;;;;11.47;85.57;98314.16;217459;1260;139876;-78
2024/02/23 14:01:53;;;;;;;8.80;4.80;;;;;;;11.43;85.35;98325.33;217648;1260;139566;-76
2024/02/23 14:06:57;;;;;;;5.20;3.60;;;;;;;11.39;85.56;98331.64;217624;1257;141151;-76
2024/02/23 14:12:02;;;;;;;8.70;4.70;;;;;;;11.32;85.40;98332.89;217788;1257;140153;-76
2024/02/23 14:17:06;;;;;;;5.50;4.50;;;;;;;11.24;85.25;98338.77;217403;1258;140404;-78
2024/02/23 14:22:16;;;;;;;7.90;5.80;;;;;;;11.19;85.60;98339.95;217874;1257;139602;-75
2024/02/23 14:27:20;;;;;;;12.00;6.20;;;;;;;11.17;85.92;98343.80;218525;1257;139732;-76
2024/02/23 14:32:24;;;;;;;9.30;6.30;;;;;;;11.09;85.46;98351.49;218761;1257;140974;-78
2024/02/23 14:37:30;;;;;;;5.20;4.40;;;;;;;11.02;85.83;98355.45;217486;1257;140682;-76
2024/02/23 14:42:34;;;;;;;7.90;6.70;;;;;;;10.94;85.73;98359.87;217778;1257;140069;-77
2024/02/23 14:47:38;;;;;;;9.40;5.70;;;;;;;10.91;85.93;98365.27;217751;1258;140692;-77
2024/02/23 14:52:49;;;;;;;11.80;5.20;;;;;;;10.88;86.05;98369.05;217992;1258;141836;-76
2024/02/23 14:57:54;;;;;;;7.10;5.70;;;;;;;10.85;85.91;98369.95;217661;1257;140417;-77
2024/02/23 15:02:58;;;;;;;5.90;4.40;;;;;;;10.74;85.30;98374.60;217812;1256;139992;-74
2024/02/23 15:08:01;;;;;;;6.80;4.10;;;;;;;10.70;85.63;98379.14;217460;1257;140952;-76
2024/02/23 15:13:06;;;;;;;6.80;4.30;;;;;;;10.67;85.98;98389.13;217696;1256;140648;-78
2024/02/23 15:18:10;;;;;;;7.20;4.50;;;;;;;10.62;86.25;98393.06;217825;1256;139853;-79
2024/02/23 15:23:14;;;;;;;6.20;5.60;;;;;;;10.55;86.64;98397.38;217610;1259;139926;-78
2024/02/23 15:28:22;;;;;;;7.80;4.40;;;;;;;10.36;86.25;98399.61;218043;1255;139610;-77
2024/02/23 15:33:27;;;;;;;6.20;4.30;;;;;;;10.22;86.98;98404.28;218281;1256;140260;-78
2024/02/23 15:38:31;;;;;;;8.90;4.20;;;;;;;10.17;87.44;98406.06;217813;1257;140524;-78
2024/02/23 15:43:36;;;;;;;4.80;4.00;;;;;;;9.99;86.99;98403.05;217908;1256;139552;-78
2024/02/23 15:48:43;;;;;;;5.80;4.20;;;;;;;9.75;86.90;98405.38;217709;1254;140462;-78
2024/02/23 15:53:47;;;;;;;8.40;4.70;;;;;;;9.66;87.88;98413.48;217871;1256;139489;-78
2024/02/23 15:58:51;;;;;;;6.50;5.50;;;;;;;9.66;88.40;98410.73;217672;1259;139658;-78
2024/02/23 16:03:55;;;;;;;10.10;4.30;;;;;;;9.64;88.67;98414.66;218003;1258;141816;-78
2024/02/23 16:09:00;;;;;;;9.40;4.70;;;;;;;9.62;88.90;98427.63;217643;1256;140336;-78
2024/02/23 16:14:05;;;;;;;8.60;6.70;;;;;;;9.58;88.92;98436.92;217764;1255;140089;-76
2024/02/23 16:19:10;;;;;;;13.40;10.60;;;;;;;9.51;88.99;98456.95;217856;1254;139690;-78
2024/02/23 16:24:14;;;;;;;10.70;8.40;;;;;;;9.38;89.04;98460.67;217974;1254;140524;-77
2024/02/23 16:29:19;;;;;;;11.80;8.30;;;;;;;9.24;89.15;98453.34;217836;1256;139716;-77
2024/02/23 16:34:23;;;;;;;12.10;8.70;;;;;;;9.12;89.31;98460.95;217983;1259;139456;-78
2024/02/23 16:39:27;;;;;;;11.70;7.50;;;;;;;8.98;89.54;98466.52;217998;1259;141013;-77
2024/02/23 16:44:30;;;;;;;11.60;8.00;;;;;;;8.86;89.67;98468.03;217642;1256;142211;-78
2024/02/23 16:49:34;;;;;;;8.10;6.50;;;;;;;8.76;89.53;98471.04;217816;1254;139633;-77
2024/02/23 16:54:37;;;;;;;13.50;9.30;;;;;;;8.65;89.84;98475.94;217567;1257;141094;-75
2024/02/23 16:59:41;;;;;;;11.10;8.40;;;;;;;8.55;89.89;98476.38;218482;1254;139958;-75
2024/02/23 17:04:44;;;;;;;15.10;10.90;;;;;;;8.45;90.03;98477.30;218624;1257;140168;-77
2024/02/23 17:09:48;;;;;;;12.40;7.30;;;;;;;8.36;90.29;98476.83;217734;1254;140594;-77
2024/02/23 17:14:52;;;;;;;13.30;9.00;;;;;;;8.28;90.22;98482.04;218746;1254;140252;-77
2024/02/23 17:19:55;;;;;;;11.10;6.90;;;;;;;8.21;90.44;98486.86;217509;1255;140935;-74
2024/02/23 17:24:59;;;;;;;10.50;9.00;;;;;;;8.15;90.48;98490.67;217713;1259;139557;-76
2024/02/23 17:30:04;;;;;;;14.50;8.80;;;;;;;8.06;90.61;98488.19;217723;1258;140166;-77
2024/02/23 17:35:10;;;;;;;10.60;8.80;;;;;;;8.00;90.84;98497.34;217720;1256;139500;-77
2024/02/23 17:40:19;;;;;;;15.00;10.80;;;;;;;7.95;91.07;98504.92;218271;1254;139854;-78
2024/02/23 17:45:23;;;;;;;16.60;11.90;;;;;;;7.89;90.76;98510.27;218061;1259;139745;-77
2024/02/23 17:50:27;;;;;;;13.20;10.50;;;;;;;7.81;91.18;98516.27;217799;1256;140145;-74
2024/02/23 17:55:30;;;;;;;19.60;13.30;;;;;;;7.70;90.92;98512.52;217700;1257;140469;-77
2024/02/23 18:00:34;;;;;;;11.50;6.80;;;;;;;7.53;91.32;98514.37;217787;1256;140310;-77
2024/02/23 18:05:38;;;;;;;9.80;6.80;;;;;;;7.41;91.60;98511.48;218204;1256;141463;-79
2024/02/23 18:10:43;;;;;;;10.00;7.20;;;;;;;7.34;91.85;98511.72;218083;1254;140250;-78
2024/02/23 18:15:47;;;;;;;11.00;7.60;;;;;;;7.30;92.10;98512.61;218481;1255;139872;-78
2024/02/23 18:20:51;;;;;;;13.10;8.10;;;;;;;7.30;92.81;98508.38;217947;1254;140857;-77
2024/02/23 18:25:55;;;;;;;14.20;10.80;;;;;;;7.31;92.97;98509.09;217685;1257;139621;-77
2024/02/23 18:30:59;;;;;;;17.60;13.10;;;;;;;7.37;93.17;98518.65;217772;1256;139860;-78
2024/02/23 18:36:06;;;;;;;9.70;8.70;;;;;;;7.43;93.13;98528.48;217846;1260;139945;-76
2024/02/23 18:41:12;;;;;;;16.90;10.90;;;;;;;7.43;93.00;98529.91;218390;1255;140584;-76
2024/02/23 18:46:16;;;;;;;13.50;9.60;;;;;;;7.47;93.33;98534.43;217696;1260;140338;-77
2024/02/23 18:51:21;;;;;;;10.50;8.90;;;;;;;7.49;93.55;98531.33;217981;1259;139187;-74
2024/02/23 18:56:25;;;;;;;14.00;9.30;;;;;;;7.47;93.36;98528.12;217977;1259;243649;-75
2024/02/23 19:01:29;;;;;;;14.20;11.10;;;;;;;7.47;93.61;98526.69;217938;1256;139456;-79
2024/02/23 19:06:33;;;;;;;14.70;11.90;;;;;;;7.44;93.53;98525.52;218145;1256;140512;-74
2024/02/23 19:11:37;;;;;;;15.60;12.20;;;;;;;7.43;93.83;98522.02;217682;1254;139192;-75
2024/02/23 19:16:41;;;;;;;16.10;11.80;;;;;;;7.47;94.21;98516.78;218013;1255;139403;-77
2024/02/23 19:21:47;;;;;;;19.20;14.70;;;;;;;7.51;94.15;98511.69;218254;1259;141069;-74
2024/02/23 19:26:51;;;;;;;17.60;13.20;;;;;;;7.54;94.56;98511.37;218291;1255;140290;-73
2024/02/23 19:31:56;;;;;;;52.90;27.10;;;;;;;7.56;94.37;98517.23;217163;1256;812237;-76
2024/02/23 19:37:00;;;;;;;30.30;20.80;;;;;;;7.55;94.10;98521.19;217667;1256;140489;-76
2024/02/23 19:42:04;;;;;;;33.40;19.10;;;;;;;7.53;94.14;98524.65;217920;1259;140442;-75
2024/02/23 19:47:08;;;;;;;21.10;16.90;;;;;;;7.54;94.35;98521.33;218952;1255;139556;-75
2024/02/23 19:52:15;;;;;;;21.00;16.40;;;;;;;7.55;94.36;98521.41;217752;1259;139649;-76
2024/02/23 19:57:19;;;;;;;34.30;23.70;;;;;;;7.57;94.52;98506.52;217740;1260;139595;-75
2024/02/23 20:02:23;;;;;;;23.40;17.60;;;;;;;7.55;94.36;98507.83;217650;1258;140971;-75
2024/02/23 20:07:27;;;;;;;22.40;17.20;;;;;;;7.50;94.21;98508.22;218256;1256;139344;-74
2024/02/23 20:12:30;;;;;;;29.00;20.80;;;;;;;7.48;94.39;98498.96;217847;1256;139231;-74
2024/02/23 20:17:39;;;;;;;31.40;21.90;;;;;;;7.46;94.48;98491.25;217756;1256;140327;-75
2024/02/23 20:22:43;;;;;;;29.20;19.90;;;;;;;7.40;94.35;98495.09;217932;1256;140452;-78
2024/02/23 20:27:48;;;;;;;46.40;30.40;;;;;;;7.32;94.23;98496.27;219079;1255;140420;-76
2024/02/23 20:32:52;;;;;;;54.90;33.70;;;;;;;7.31;94.85;98495.73;217802;1258;139865;-75
2024/02/23 20:37:58;;;;;;;49.60;31.10;;;;;;;7.36;94.74;98487.97;217752;1256;141443;-73
2024/02/23 20:43:02;;;;;;;46.80;30.00;;;;;;;7.34;94.79;98476.88;217694;1260;139565;-74
2024/02/23 20:48:06;;;;;;;31.10;24.60;;;;;;;7.33;95.03;98478.68;217613;1254;142546;-74
2024/02/23 20:53:12;;;;;;;38.00;25.60;;;;;;;7.35;94.98;98478.41;217723;1257;140277;-78
2024/02/23 20:58:16;;;;;;;33.50;22.10;;;;;;;7.34;95.13;98475.50;217763;1256;139871;-75
2024/02/23 21:03:21;;;;;;;49.50;28.80;;;;;;;7.29;94.79;98470.36;218120;1257;140977;-73
2024/02/23 21:08:25;;;;;;;39.80;23.80;;;;;;;7.28;95.43;98464.25;217871;1254;139773;-75
2024/02/23 21:13:30;;;;;;;24.80;21.10;;;;;;;7.25;94.91;98462.19;217933;1256;140361;-74
2024/02/23 21:18:34;;;;;;;51.40;29.20;;;;;;;7.18;95.08;98455.98;217719;1259;140436;-77
2024/02/23 21:23:42;;;;;;;31.60;21.40;;;;;;;7.13;95.02;98455.06;217754;1254;140283;-73
2024/02/23 21:28:50;;;;;;;39.50;23.70;;;;;;;7.08;95.28;98451.66;218115;1254;139561;-74
2024/02/23 21:33:56;;;;;;;32.80;19.90;;;;;;;7.07;95.67;98450.80;217941;1255;140623;-75
2024/02/23 21:39:01;;;;;;;61.30;32.60;;;;;;;7.06;96.16;98450.34;217953;1256;140722;-74
2024/02/23 21:44:07;;;;;;;43.80;28.00;;;;;;;7.07;96.21;98444.64;217727;1259;140659;-75
2024/02/23 21:49:11;;;;;;;33.60;22.60;;;;;;;7.09;96.27;98441.13;217344;1260;139740;-75
2024/02/23 21:54:15;;;;;;;36.70;23.30;;;;;;;7.11;96.35;98438.19;218374;1256;140397;-75
2024/02/23 21:59:20;;;;;;;30.90;20.00;;;;;;;7.12;96.68;98432.04;218391;1255;139882;-77
2024/02/23 22:04:24;;;;;;;41.80;25.70;;;;;;;7.12;96.97;98442.70;217838;1259;140362;-77
2024/02/23 22:09:30;;;;;;;31.40;20.30;;;;;;;7.12;97.08;98445.02;217813;1259;140922;-78
2024/02/23 22:14:34;;;;;;;39.60;23.80;;;;;;;7.12;97.24;98438.61;217957;1254;138894;-74
2024/02/23 22:19:39;;;;;;;36.20;22.50;;;;;;;7.13;97.49;98436.30;219596;1256;139883;-76
2024/02/23 22:24:44;;;;;;;32.40;21.80;;;;;;;7.16;97.52;98437.94;217985;1254;141591;-78
2024/02/23 22:29:50;;;;;;;35.90;19.40;;;;;;;7.17;97.49;98434.61;218900;1255;140896;-75
2024/02/23 22:34:56;;;;;;;31.50;18.60;;;;;;;7.16;97.55;98427.02;217860;1259;141956;-77
2024/02/23 22:40:00;;;;;;;31.30;20.30;;;;;;;7.15;97.77;98419.38;217898;1259;139578;-75
2024/02/23 22:45:06;;;;;;;27.20;17.70;;;;;;;7.15;97.96;98421.92;217573;1260;139363;-76
2024/02/23 22:50:10;;;;;;;25.40;18.10;;;;;;;7.15;97.80;98421.43;217633;1255;140243;-76
2024/02/23 22:55:14;;;;;;;31.60;19.00;;;;;;;7.13;97.55;98411.34;217933;1254;140740;-75
2024/02/23 23:00:18;;;;;;;32.30;17.50;;;;;;;7.09;98.04;98405.45;218040;1254;140861;-75
2024/02/23 23:05:24;;;;;;;28.60;15.50;;;;;;;7.08;98.13;98403.85;217690;1256;139917;-76
2024/02/23 23:10:29;;;;;;;25.40;14.80;;;;;;;7.10;98.50;98418.61;217766;1254;140361;-74
2024/02/23 23:15:32;;;;;;;27.00;17.00;;;;;;;7.09;97.86;98410.96;217787;1256;140405;-76
2024/02/23 23:20:36;;;;;;;26.30;16.90;;;;;;;7.07;98.16;98402.13;217634;1255;139855;-75
2024/02/23 23:25:41;;;;;;;27.00;16.10;;;;;;;7.05;98.47;98398.13;217623;1256;140957;-76